Time;durP1;ratioP1;P1;durP2;ratioP2;P2;SDS_P1;SDS_P2;PMS_P1;PMS_P2;Temp;Humidity;BMP_temperature;BMP_pressure;BME280_temperature;BME280_humidity;BME280_pressure;Samples;Min_cycle;Max_cycle;Signal;HPM_P1;HPM_P2
2022/05/05 00:00:47;;;;;;;4.45;3.03;;;;;;;;;;5013266;28;20388;-74
2022/05/05 00:03:13;;;;;;;8.48;2.28;;;;;;;;;;5015515;28;20037;-74
2022/05/05 00:05:39;;;;;;;4.85;2.00;;;;;;;;;;5013488;28;20042;-74
2022/05/05 00:08:07;;;;;;;4.78;1.40;;;;;;;;;;5017629;28;20030;-74
2022/05/05 00:16:02;;;;;;;2.60;1.00;;;;;;;;;;5016830;28;20045;-74
2022/05/05 00:18:28;;;;;;;3.95;1.55;;;;;;;;;;5021651;28;20038;-74
2022/05/05 00:20:54;;;;;;;3.42;1.10;;;;;;;;;;5017180;28;20476;-74
2022/05/05 00:23:20;;;;;;;4.50;1.10;;;;;;;;;;5023413;28;20040;-74
2022/05/05 00:25:46;;;;;;;2.38;0.85;;;;;;;;;;5021138;28;20064;-75
2022/05/05 00:28:12;;;;;;;2.33;1.00;;;;;;;;;;5025198;28;20049;-74
2022/05/05 00:30:38;;;;;;;2.78;1.33;;;;;;;;;;5018207;28;20465;-74
2022/05/05 00:33:04;;;;;;;2.58;1.27;;;;;;;;;;5017292;28;20036;-74
2022/05/05 00:35:30;;;;;;;2.80;0.95;;;;;;;;;;5018656;28;20097;-75
2022/05/05 00:37:56;;;;;;;4.55;3.30;;;;;;;;;;5015688;28;20084;-75
2022/05/05 00:40:22;;;;;;;3.95;2.58;;;;;;;;;;5016669;28;20033;-75
2022/05/05 00:42:49;;;;;;;4.97;2.20;;;;;;;;;;5016918;28;20063;-74
2022/05/05 00:45:15;;;;;;;5.40;2.30;;;;;;;;;;5019095;28;20061;-74
2022/05/05 00:47:41;;;;;;;3.67;2.20;;;;;;;;;;5013400;28;20115;-74
2022/05/05 00:50:07;;;;;;;4.55;1.92;;;;;;;;;;5023467;28;20065;-75
2022/05/05 00:52:33;;;;;;;5.35;2.00;;;;;;;;;;5014353;28;20065;-74
2022/05/05 00:55:00;;;;;;;3.72;1.83;;;;;;;;;;5018987;28;20034;-74
2022/05/05 00:57:27;;;;;;;3.97;2.05;;;;;;;;;;5022158;28;20044;-74
2022/05/05 00:59:54;;;;;;;3.72;1.70;;;;;;;;;;5017931;28;20472;-74
2022/05/05 01:02:20;;;;;;;3.58;1.60;;;;;;;;;;5016835;28;20529;-74
2022/05/05 01:04:46;;;;;;;3.03;1.58;;;;;;;;;;5022253;28;20033;-74
2022/05/05 01:07:13;;;;;;;3.60;1.70;;;;;;;;;;5017543;28;20047;-75
2022/05/05 01:09:39;;;;;;;3.58;1.83;;;;;;;;;;5019298;28;20040;-75
2022/05/05 01:12:06;;;;;;;4.65;2.00;;;;;;;;;;5017310;28;20034;-75
2022/05/05 01:14:33;;;;;;;3.67;2.15;;;;;;;;;;5017064;28;20029;-74
2022/05/05 01:16:59;;;;;;;6.68;2.90;;;;;;;;;;5015919;28;20352;-74
2022/05/05 01:19:25;;;;;;;4.72;2.97;;;;;;;;;;5016724;28;20041;-75
2022/05/05 01:21:52;;;;;;;4.93;3.13;;;;;;;;;;5014784;28;20497;-74
2022/05/05 01:28:10;;;;;;;4.47;3.00;;;;;;;;;;5012731;28;20038;-74
2022/05/05 01:29:51;;;;;;;4.85;2.70;;;;;;;;;;5020698;28;20068;-74
2022/05/05 01:32:17;;;;;;;5.55;3.42;;;;;;;;;;5018497;28;20034;-74
2022/05/05 01:34:43;;;;;;;4.32;2.58;;;;;;;;;;5016612;28;20026;-74
2022/05/05 01:37:09;;;;;;;4.38;2.25;;;;;;;;;;5016324;28;20490;-74
2022/05/05 01:39:35;;;;;;;5.18;3.00;;;;;;;;;;5009043;28;20080;-75
2022/05/05 01:42:01;;;;;;;4.97;2.38;;;;;;;;;;5012818;28;20049;-74
2022/05/05 01:44:27;;;;;;;9.48;4.35;;;;;;;;;;5017714;28;20034;-75
2022/05/05 01:46:54;;;;;;;4.72;3.05;;;;;;;;;;5014276;28;20475;-74
2022/05/05 01:49:19;;;;;;;6.05;3.80;;;;;;;;;;5014001;28;20112;-75
2022/05/05 01:51:45;;;;;;;5.10;3.65;;;;;;;;;;5011562;28;20121;-74
2022/05/05 01:54:12;;;;;;;4.30;2.75;;;;;;;;;;5019092;28;20037;-74
2022/05/05 01:56:38;;;;;;;4.40;2.53;;;;;;;;;;5020208;28;20061;-75
2022/05/05 01:59:04;;;;;;;4.10;2.30;;;;;;;;;;5015447;28;20052;-75
2022/05/05 02:01:30;;;;;;;4.47;1.80;;;;;;;;;;5011803;28;20038;-75
2022/05/05 02:03:56;;;;;;;3.67;1.70;;;;;;;;;;5012301;28;20061;-74
2022/05/05 02:06:22;;;;;;;3.30;1.63;;;;;;;;;;5010430;28;20037;-74
2022/05/05 02:08:48;;;;;;;3.13;1.50;;;;;;;;;;5010960;28;20046;-74
2022/05/05 02:11:14;;;;;;;3.03;1.42;;;;;;;;;;5014615;28;20034;-74
2022/05/05 02:13:40;;;;;;;4.35;1.30;;;;;;;;;;5010886;28;20639;-74
2022/05/05 02:16:06;;;;;;;3.20;1.60;;;;;;;;;;5008698;28;20033;-74
2022/05/05 02:18:32;;;;;;;4.78;1.90;;;;;;;;;;5008588;28;20030;-74
2022/05/05 02:20:58;;;;;;;3.53;1.83;;;;;;;;;;5011570;28;20102;-75
2022/05/05 02:23:24;;;;;;;5.20;2.15;;;;;;;;;;5015055;28;20072;-74
2022/05/05 02:25:50;;;;;;;4.75;1.95;;;;;;;;;;5016202;28;20123;-74
2022/05/05 02:28:16;;;;;;;4.35;2.53;;;;;;;;;;5008436;28;20077;-75
2022/05/05 02:30:42;;;;;;;3.33;1.75;;;;;;;;;;5008682;28;20515;-74
2022/05/05 02:33:08;;;;;;;4.30;1.60;;;;;;;;;;5010293;28;20030;-74
2022/05/05 02:35:34;;;;;;;4.88;2.53;;;;;;;;;;5007771;28;20025;-74
2022/05/05 02:40:45;;;;;;;8.13;3.00;;;;;;;;;;5018058;28;20605;-74
2022/05/05 02:43:11;;;;;;;4.13;2.85;;;;;;;;;;5015012;28;20128;-75
2022/05/05 02:45:37;;;;;;;3.90;2.65;;;;;;;;;;5008579;28;20187;-74
2022/05/05 02:48:04;;;;;;;4.47;3.25;;;;;;;;;;5008152;28;20057;-74
2022/05/05 02:50:31;;;;;;;5.85;3.20;;;;;;;;;;5011964;28;20116;-74
2022/05/05 02:52:57;;;;;;;5.20;3.15;;;;;;;;;;5013865;28;20026;-74
2022/05/05 02:55:24;;;;;;;9.02;6.07;;;;;;;;;;5016609;28;20088;-74
2022/05/05 02:57:50;;;;;;;9.57;8.65;;;;;;;;;;5014291;28;20081;-74
2022/05/05 03:00:17;;;;;;;8.98;7.13;;;;;;;;;;5017692;28;20065;-74
2022/05/05 03:02:43;;;;;;;7.35;5.45;;;;;;;;;;5014495;28;20064;-74
2022/05/05 03:05:10;;;;;;;8.88;4.85;;;;;;;;;;5016617;28;20038;-74
2022/05/05 03:07:36;;;;;;;6.30;3.55;;;;;;;;;;5013537;28;20076;-74
2022/05/05 03:10:02;;;;;;;5.47;2.60;;;;;;;;;;5010841;28;20033;-74
2022/05/05 03:12:28;;;;;;;4.30;2.15;;;;;;;;;;5012036;28;20600;-75
2022/05/05 03:14:54;;;;;;;5.63;1.77;;;;;;;;;;5011025;28;20034;-74
2022/05/05 03:17:20;;;;;;;3.85;1.52;;;;;;;;;;5014789;28;20559;-74
2022/05/05 03:19:46;;;;;;;5.13;1.50;;;;;;;;;;5012372;28;20101;-74
2022/05/05 03:22:12;;;;;;;5.15;2.30;;;;;;;;;;5018125;28;20029;-74
2022/05/05 03:24:38;;;;;;;3.92;1.77;;;;;;;;;;5012267;28;20503;-75
2022/05/05 03:27:04;;;;;;;4.60;2.20;;;;;;;;;;5017366;28;20047;-74
2022/05/05 03:29:32;;;;;;;4.13;2.78;;;;;;;;;;5014780;28;20037;-74
2022/05/05 03:31:58;;;;;;;5.80;2.50;;;;;;;;;;5019331;28;20040;-74
2022/05/05 03:34:24;;;;;;;6.38;2.30;;;;;;;;;;5010555;28;20083;-74
2022/05/05 03:36:50;;;;;;;4.28;2.75;;;;;;;;;;5016373;28;20080;-75
2022/05/05 03:39:16;;;;;;;10.77;8.07;;;;;;;;;;5014283;28;20045;-75
2022/05/05 03:41:42;;;;;;;7.03;5.07;;;;;;;;;;5011074;28;20044;-74
2022/05/05 03:44:08;;;;;;;12.00;7.43;;;;;;;;;;5016558;28;20463;-74
2022/05/05 03:46:34;;;;;;;9.35;7.13;;;;;;;;;;5012903;28;20057;-74
2022/05/05 03:49:00;;;;;;;13.77;10.32;;;;;;;;;;5022833;28;20122;-74
2022/05/05 03:51:26;;;;;;;10.50;9.45;;;;;;;;;;5013757;28;20769;-74
2022/05/05 03:53:53;;;;;;;17.88;12.07;;;;;;;;;;5013165;28;20382;-74
2022/05/05 03:56:19;;;;;;;8.95;7.15;;;;;;;;;;5012891;28;20044;-74
2022/05/05 03:58:45;;;;;;;7.35;5.60;;;;;;;;;;5013563;28;20096;-74
2022/05/05 04:01:11;;;;;;;5.53;3.80;;;;;;;;;;5017826;28;20634;-74
2022/05/05 04:03:43;;;;;;;6.15;3.22;;;;;;;;;;5009627;28;20796;-74
2022/05/05 04:06:09;;;;;;;6.90;2.50;;;;;;;;;;5017162;28;20041;-75
2022/05/05 04:08:36;;;;;;;5.13;2.35;;;;;;;;;;5013054;28;20540;-75
2022/05/05 04:11:02;;;;;;;5.10;2.92;;;;;;;;;;5017635;28;20034;-74
2022/05/05 04:13:29;;;;;;;3.90;1.90;;;;;;;;;;5019059;28;20046;-74
2022/05/05 04:15:55;;;;;;;6.03;1.90;;;;;;;;;;5011377;28;20037;-74
2022/05/05 04:18:21;;;;;;;5.05;1.63;;;;;;;;;;5014299;28;20033;-74
2022/05/05 04:20:47;;;;;;;6.13;2.20;;;;;;;;;;5015600;28;20029;-74
2022/05/05 04:23:13;;;;;;;4.78;2.38;;;;;;;;;;5012813;28;20045;-75
2022/05/05 04:25:43;;;;;;;4.53;2.70;;;;;;;;;;5014576;28;20048;-74
2022/05/05 04:28:10;;;;;;;4.38;1.70;;;;;;;;;;5018455;28;20058;-74
2022/05/05 04:30:36;;;;;;;5.82;1.95;;;;;;;;;;5010640;28;20034;-74
2022/05/05 04:33:03;;;;;;;4.72;1.98;;;;;;;;;;5013258;28;20141;-74
2022/05/05 04:35:30;;;;;;;4.38;1.95;;;;;;;;;;5011979;28;20084;-74
2022/05/05 04:37:56;;;;;;;6.20;2.55;;;;;;;;;;5015040;28;20056;-74
2022/05/05 04:40:22;;;;;;;3.35;1.65;;;;;;;;;;5014802;28;20436;-74
2022/05/05 04:42:48;;;;;;;5.03;2.50;;;;;;;;;;5015793;28;20048;-74
2022/05/05 04:45:14;;;;;;;5.38;2.25;;;;;;;;;;5009557;28;20056;-74
2022/05/05 04:47:40;;;;;;;4.80;2.13;;;;;;;;;;5010019;28;20483;-74
2022/05/05 04:50:06;;;;;;;5.82;2.00;;;;;;;;;;5013173;28;20034;-74
2022/05/05 04:52:33;;;;;;;7.85;4.20;;;;;;;;;;5013051;28;20048;-75
2022/05/05 04:54:59;;;;;;;7.30;3.72;;;;;;;;;;5008945;28;20866;-74
2022/05/05 04:57:25;;;;;;;7.88;2.65;;;;;;;;;;5013570;28;20434;-74
2022/05/05 04:59:52;;;;;;;9.25;3.40;;;;;;;;;;5016600;28;20029;-74
2022/05/05 05:02:18;;;;;;;6.68;2.63;;;;;;;;;;5010476;28;20080;-74
2022/05/05 05:04:44;;;;;;;7.53;2.85;;;;;;;;;;5020465;28;20034;-74
2022/05/05 05:07:10;;;;;;;6.22;2.80;;;;;;;;;;5013276;28;20088;-74
2022/05/05 05:09:36;;;;;;;7.28;4.20;;;;;;;;;;5019206;28;20032;-74
2022/05/05 05:12:02;;;;;;;7.60;3.65;;;;;;;;;;5015380;28;20038;-74
2022/05/05 05:14:28;;;;;;;9.90;3.70;;;;;;;;;;5018431;28;20033;-74
2022/05/05 05:16:54;;;;;;;7.25;4.60;;;;;;;;;;5016025;28;20372;-74
2022/05/05 05:19:20;;;;;;;8.35;7.00;;;;;;;;;;5016812;28;20104;-74
2022/05/05 05:21:47;;;;;;;6.65;4.78;;;;;;;;;;5019142;28;20042;-74
2022/05/05 05:24:13;;;;;;;8.05;4.88;;;;;;;;;;5018025;28;20041;-74
2022/05/05 05:26:39;;;;;;;9.75;4.60;;;;;;;;;;5016159;28;20054;-74
2022/05/05 05:29:05;;;;;;;7.07;3.92;;;;;;;;;;5013595;28;20044;-74
2022/05/05 05:31:31;;;;;;;6.85;4.28;;;;;;;;;;5015579;28;20026;-74
2022/05/05 05:33:59;;;;;;;7.90;5.07;;;;;;;;;;5012303;28;20403;-74
2022/05/05 05:36:25;;;;;;;10.93;5.78;;;;;;;;;;5012258;28;20026;-74
2022/05/05 05:38:51;;;;;;;12.27;6.07;;;;;;;;;;5017693;28;20507;-74
2022/05/05 05:41:17;;;;;;;8.85;5.28;;;;;;;;;;5013230;28;20092;-74
2022/05/05 05:43:43;;;;;;;7.78;4.68;;;;;;;;;;5014955;28;20092;-74
2022/05/05 05:46:09;;;;;;;11.40;5.60;;;;;;;;;;5011213;28;20586;-74
2022/05/05 05:48:37;;;;;;;8.20;5.03;;;;;;;;;;5008102;28;20028;-74
2022/05/05 05:51:03;;;;;;;8.23;4.60;;;;;;;;;;5010456;28;20034;-74
2022/05/05 05:53:29;;;;;;;9.30;6.13;;;;;;;;;;5009183;28;20037;-74
2022/05/05 05:55:55;;;;;;;10.27;6.18;;;;;;;;;;5008056;28;20034;-74
2022/05/05 05:58:21;;;;;;;9.60;5.22;;;;;;;;;;5017812;28;20041;-74
2022/05/05 06:00:47;;;;;;;10.02;5.25;;;;;;;;;;5016699;28;20132;-74
2022/05/05 06:05:57;;;;;;;7.55;3.85;;;;;;;;;;5019193;28;20056;-74
2022/05/05 06:08:23;;;;;;;7.32;4.60;;;;;;;;;;5018241;28;20038;-74
2022/05/05 06:10:49;;;;;;;11.07;5.70;;;;;;;;;;5016046;28;20490;-74
2022/05/05 06:13:15;;;;;;;10.95;5.82;;;;;;;;;;5017535;28;20041;-74
2022/05/05 06:15:41;;;;;;;10.68;6.30;;;;;;;;;;5013023;28;20041;-74
2022/05/05 06:18:07;;;;;;;13.80;7.63;;;;;;;;;;5020762;28;20079;-74
2022/05/05 06:20:33;;;;;;;11.13;6.47;;;;;;;;;;5015913;28;20038;-74
2022/05/05 06:23:00;;;;;;;9.57;5.93;;;;;;;;;;5014556;28;20117;-74
2022/05/05 06:25:26;;;;;;;20.95;8.07;;;;;;;;;;5012846;28;20033;-74
2022/05/05 06:27:53;;;;;;;13.65;7.18;;;;;;;;;;5016390;28;20068;-74
2022/05/05 06:30:19;;;;;;;12.90;7.57;;;;;;;;;;5018483;28;20026;-74
2022/05/05 06:32:46;;;;;;;10.73;6.38;;;;;;;;;;5016028;28;20866;-74
2022/05/05 06:35:12;;;;;;;12.55;6.18;;;;;;;;;;5016371;28;20029;-74
2022/05/05 06:37:38;;;;;;;14.60;6.57;;;;;;;;;;5018389;28;20045;-74
2022/05/05 06:40:05;;;;;;;10.32;6.38;;;;;;;;;;5012088;28;20037;-74
2022/05/05 06:42:31;;;;;;;10.80;6.95;;;;;;;;;;5012208;28;20033;-74
2022/05/05 06:44:58;;;;;;;10.48;6.82;;;;;;;;;;5018606;28;20025;-74
2022/05/05 06:47:27;;;;;;;13.70;7.93;;;;;;;;;;5027567;28;20037;-74
2022/05/05 06:49:53;;;;;;;14.95;10.18;;;;;;;;;;5022310;28;20072;-74
2022/05/05 06:52:19;;;;;;;14.15;10.27;;;;;;;;;;5016442;28;20076;-74
2022/05/05 06:54:45;;;;;;;14.90;8.10;;;;;;;;;;5014315;28;20088;-74
2022/05/05 06:57:11;;;;;;;12.10;6.20;;;;;;;;;;5022402;28;20578;-74
2022/05/05 06:59:37;;;;;;;10.13;6.30;;;;;;;;;;5011248;28;20026;-74
2022/05/05 07:02:03;;;;;;;15.70;6.45;;;;;;;;;;5022499;28;20117;-74
2022/05/05 07:07:15;;;;;;;7.35;4.38;;;;;;;;;;5019515;28;20072;-74
2022/05/05 07:12:27;;;;;;;8.48;4.78;;;;;;;;;;5013009;28;20186;-74
2022/05/05 07:14:53;;;;;;;10.25;4.47;;;;;;;;;;5017725;28;20045;-74
2022/05/05 07:17:19;;;;;;;8.80;3.47;;;;;;;;;;5021755;28;20037;-74
2022/05/05 07:19:45;;;;;;;7.72;3.33;;;;;;;;;;5021707;28;20041;-74
2022/05/05 07:22:12;;;;;;;9.35;3.63;;;;;;;;;;5018987;28;20116;-74
2022/05/05 07:24:37;;;;;;;13.20;5.28;;;;;;;;;;5023805;28;20479;-74
2022/05/05 07:27:05;;;;;;;8.30;3.85;;;;;;;;;;5018890;28;20050;-74
2022/05/05 07:29:31;;;;;;;6.75;3.67;;;;;;;;;;5010336;28;20030;-74
2022/05/05 07:31:57;;;;;;;8.90;2.88;;;;;;;;;;5018007;28;20034;-74
2022/05/05 07:34:23;;;;;;;6.13;2.13;;;;;;;;;;5012917;28;20025;-75
2022/05/05 07:36:50;;;;;;;5.85;1.73;;;;;;;;;;5021860;28;20858;-74
2022/05/05 07:39:16;;;;;;;9.50;2.42;;;;;;;;;;5025062;28;20108;-74
2022/05/05 07:41:42;;;;;;;9.60;2.92;;;;;;;;;;5021145;28;20037;-74
2022/05/05 07:44:09;;;;;;;8.18;3.17;;;;;;;;;;5012526;28;20044;-74
2022/05/05 07:46:35;;;;;;;6.10;2.55;;;;;;;;;;5012637;28;20030;-74
2022/05/05 07:49:02;;;;;;;4.85;2.03;;;;;;;;;;5017331;28;20116;-74
2022/05/05 07:51:31;;;;;;;6.10;1.70;;;;;;;;;;5013362;28;20044;-74
2022/05/05 07:56:43;;;;;;;4.53;1.63;;;;;;;;;;5015857;28;20831;-74
2022/05/05 07:59:09;;;;;;;3.25;1.60;;;;;;;;;;5012476;28;20034;-74
2022/05/05 08:01:35;;;;;;;5.65;1.60;;;;;;;;;;5010502;28;20033;-74
2022/05/05 08:04:01;;;;;;;3.95;1.60;;;;;;;;;;5026811;28;20041;-74
2022/05/05 08:06:27;;;;;;;4.38;1.50;;;;;;;;;;5011589;28;20758;-74
2022/05/05 08:08:53;;;;;;;3.85;1.80;;;;;;;;;;5013173;28;20833;-74
2022/05/05 08:11:19;;;;;;;6.55;1.90;;;;;;;;;;5018615;28;20042;-74
2022/05/05 08:13:45;;;;;;;6.40;1.80;;;;;;;;;;5017573;28;20587;-74
2022/05/05 08:16:11;;;;;;;4.13;1.60;;;;;;;;;;5010941;28;20045;-74
2022/05/05 08:18:38;;;;;;;3.20;0.80;;;;;;;;;;5018949;28;20473;-74
2022/05/05 08:21:05;;;;;;;3.47;1.05;;;;;;;;;;5015415;28;20746;-74
2022/05/05 08:23:31;;;;;;;4.40;1.50;;;;;;;;;;5016086;28;20038;-73
2022/05/05 08:28:42;;;;;;;3.35;1.42;;;;;;;;;;5019929;28;20116;-74
2022/05/05 08:31:10;;;;;;;10.02;1.50;;;;;;;;;;5016385;28;20114;-73
2022/05/05 08:33:36;;;;;;;6.75;1.55;;;;;;;;;;5013466;28;20026;-73
2022/05/05 08:36:03;;;;;;;4.75;1.30;;;;;;;;;;5015519;28;20029;-73
2022/05/05 08:38:29;;;;;;;3.88;1.27;;;;;;;;;;5017615;28;20061;-74
2022/05/05 08:40:55;;;;;;;5.40;1.65;;;;;;;;;;5019631;28;20029;-74
2022/05/05 08:43:22;;;;;;;7.38;2.03;;;;;;;;;;5017114;28;20045;-73
2022/05/05 08:45:48;;;;;;;7.70;1.95;;;;;;;;;;5016637;28;20034;-73
2022/05/05 08:48:16;;;;;;;6.55;2.60;;;;;;;;;;5022412;28;20044;-73
2022/05/05 08:50:44;;;;;;;9.02;2.60;;;;;;;;;;5017716;28;20734;-73
2022/05/05 08:53:12;;;;;;;7.40;2.15;;;;;;;;;;5018106;28;20041;-73
2022/05/05 08:55:38;;;;;;;4.93;2.00;;;;;;;;;;5017276;28;20029;-73
2022/05/05 08:58:05;;;;;;;4.28;1.10;;;;;;;;;;5026240;28;20064;-74
2022/05/05 09:00:31;;;;;;;5.40;1.10;;;;;;;;;;5018078;28;20049;-74
2022/05/05 09:03:04;;;;;;;5.57;1.60;;;;;;;;;;5023415;28;20068;-74
2022/05/05 09:05:45;;;;;;;5.05;1.75;;;;;;;;;;5022554;28;20485;-74
2022/05/05 09:08:12;;;;;;;5.63;1.42;;;;;;;;;;5016983;28;20030;-74
2022/05/05 09:10:45;;;;;;;2.75;0.82;;;;;;;;;;5015394;28;20377;-74
2022/05/05 09:13:11;;;;;;;2.95;0.77;;;;;;;;;;5028809;28;20038;-74
2022/05/05 09:15:37;;;;;;;1.85;0.82;;;;;;;;;;5015032;28;20041;-74
2022/05/05 09:18:13;;;;;;;3.80;1.10;;;;;;;;;;5018921;28;20049;-74
2022/05/05 09:20:39;;;;;;;4.03;1.45;;;;;;;;;;5021675;28;20048;-74
2022/05/05 09:23:05;;;;;;;3.03;0.90;;;;;;;;;;5025604;28;20045;-74
2022/05/05 09:25:47;;;;;;;1.85;0.77;;;;;;;;;;5016123;28;20052;-74
2022/05/05 09:28:20;;;;;;;3.58;1.13;;;;;;;;;;5022091;28;20052;-74
2022/05/05 09:30:47;;;;;;;6.15;1.30;;;;;;;;;;5017029;28;20026;-74
2022/05/05 09:33:17;;;;;;;2.58;1.30;;;;;;;;;;5019229;28;20069;-74
2022/05/05 09:35:56;;;;;;;4.28;1.25;;;;;;;;;;5018426;28;20021;-74
2022/05/05 09:38:22;;;;;;;4.90;1.20;;;;;;;;;;5026043;28;20041;-74
2022/05/05 09:41:02;;;;;;;4.80;1.25;;;;;;;;;;5012298;28;20811;-74
2022/05/05 09:43:28;;;;;;;2.70;1.00;;;;;;;;;;5017829;28;20546;-74
2022/05/05 09:45:57;;;;;;;3.38;1.20;;;;;;;;;;5011784;28;20475;-74
2022/05/05 09:48:24;;;;;;;5.22;0.98;;;;;;;;;;5019003;28;20065;-74
2022/05/05 09:50:50;;;;;;;6.40;1.20;;;;;;;;;;5018831;28;20116;-74
2022/05/05 09:58:49;;;;;;;3.42;1.33;;;;;;;;;;5014656;28;20049;-74
2022/05/05 10:01:21;;;;;;;5.93;1.83;;;;;;;;;;5011431;28;20022;-74
2022/05/05 10:04:00;;;;;;;3.95;1.70;;;;;;;;;;5013417;28;20125;-74
2022/05/05 10:06:30;;;;;;;3.40;1.20;;;;;;;;;;5022988;28;20076;-74
2022/05/05 10:09:00;;;;;;;6.20;1.50;;;;;;;;;;5017216;28;20124;-74
2022/05/05 10:11:26;;;;;;;4.40;1.80;;;;;;;;;;5018245;28;20457;-74
2022/05/05 10:13:52;;;;;;;4.28;1.65;;;;;;;;;;5016842;28;20033;-74
2022/05/05 10:16:21;;;;;;;5.68;1.63;;;;;;;;;;5013755;28;20030;-74
2022/05/05 10:18:47;;;;;;;6.43;2.03;;;;;;;;;;5019386;28;20037;-74
2022/05/05 10:21:16;;;;;;;3.47;1.40;;;;;;;;;;5014370;28;20029;-74
2022/05/05 10:24:06;;;;;;;3.90;1.30;;;;;;;;;;5019275;28;20920;-74
2022/05/05 10:26:32;;;;;;;3.55;1.20;;;;;;;;;;5017543;28;20060;-74
2022/05/05 10:28:58;;;;;;;5.20;1.52;;;;;;;;;;5020511;28;20048;-74
2022/05/05 10:31:30;;;;;;;6.20;1.70;;;;;;;;;;5016009;28;20021;-73
2022/05/05 10:34:00;;;;;;;5.00;1.35;;;;;;;;;;5014363;28;20103;-74
2022/05/05 10:36:27;;;;;;;3.58;1.25;;;;;;;;;;5011240;28;20018;-74
2022/05/05 10:38:53;;;;;;;3.70;1.27;;;;;;;;;;5018490;28;20038;-74
2022/05/05 10:41:31;;;;;;;8.50;4.30;;;;;;;;;;5019401;28;20116;-74
2022/05/05 10:44:16;;;;;;;19.77;9.57;;;;;;;;;;5012907;28;20112;-74
2022/05/05 10:46:59;;;;;;;6.13;2.05;;;;;;;;;;5012063;28;20419;-74
2022/05/05 10:49:31;;;;;;;6.47;1.27;;;;;;;;;;5014814;28;20043;-74
2022/05/05 10:51:57;;;;;;;;;;;;;;;;;;5019660;28;20032;-74
2022/05/05 10:54:23;;;;;;;3.88;1.15;;;;;;;;;;5013618;28;19917;-74
2022/05/05 10:56:50;;;;;;;5.22;1.60;;;;;;;;;;5011272;28;20397;-74
2022/05/05 10:59:17;;;;;;;3.45;0.90;;;;;;;;;;5019603;28;20058;-74
2022/05/05 11:01:42;;;;;;;4.70;1.30;;;;;;;;;;5018999;28;20029;-74
2022/05/05 11:04:08;;;;;;;3.85;0.77;;;;;;;;;;5026758;28;20047;-74
2022/05/05 11:06:36;;;;;;;3.03;0.82;;;;;;;;;;5011168;28;20041;-74
2022/05/05 11:09:03;;;;;;;4.00;0.80;;;;;;;;;;5017939;28;20038;-74
2022/05/05 11:11:41;;;;;;;2.00;0.70;;;;;;;;;;5011631;28;20040;-74
2022/05/05 11:21:32;;;;;;;2.20;0.90;;;;;;;;;;5017855;28;20144;-74
2022/05/05 11:22:45;;;;;;;4.20;1.10;;;;;;;;;;5014542;28;20048;-74
2022/05/05 11:25:11;;;;;;;2.72;0.93;;;;;;;;;;5018632;28;20033;-74
2022/05/05 11:27:37;;;;;;;2.92;1.00;;;;;;;;;;5021616;28;20103;-74
2022/05/05 11:30:05;;;;;;;6.95;1.35;;;;;;;;;;5013373;28;20414;-74
2022/05/05 11:32:35;;;;;;;3.28;0.95;;;;;;;;;;5016689;28;20659;-74
2022/05/05 11:35:01;;;;;;;2.25;0.70;;;;;;;;;;5014304;28;20065;-74
2022/05/05 11:37:28;;;;;;;8.07;1.15;;;;;;;;;;5014365;28;20025;-74
2022/05/05 11:39:54;;;;;;;3.03;0.80;;;;;;;;;;5017205;28;20073;-74
2022/05/05 11:42:20;;;;;;;2.35;0.70;;;;;;;;;;5020582;28;20103;-74
2022/05/05 11:44:47;;;;;;;2.10;0.70;;;;;;;;;;5013273;28;20072;-74
2022/05/05 11:47:14;;;;;;;2.90;0.80;;;;;;;;;;5017128;28;20081;-74
2022/05/05 11:49:43;;;;;;;2.90;0.70;;;;;;;;;;5013757;28;20084;-74
2022/05/05 11:52:10;;;;;;;2.63;0.80;;;;;;;;;;5016772;28;20025;-74
2022/05/05 11:54:36;;;;;;;4.85;0.70;;;;;;;;;;5015795;28;20064;-74
2022/05/05 11:57:03;;;;;;;2.30;0.70;;;;;;;;;;5017220;28;20025;-74
2022/05/05 12:02:15;;;;;;;5.50;0.77;;;;;;;;;;5014473;28;20060;-74
2022/05/05 12:04:44;;;;;;;3.85;0.82;;;;;;;;;;5009883;28;20080;-74
2022/05/05 12:07:20;;;;;;;1.58;0.50;;;;;;;;;;5016934;28;20029;-74
2022/05/05 12:09:48;;;;;;;2.58;0.60;;;;;;;;;;5014711;28;20033;-74
2022/05/05 12:12:18;;;;;;;2.63;0.50;;;;;;;;;;5017034;28;20078;-74
2022/05/05 12:14:48;;;;;;;2.60;0.70;;;;;;;;;;5023186;28;20550;-74
2022/05/05 12:17:16;;;;;;;7.47;0.90;;;;;;;;;;5018401;28;20033;-74
2022/05/05 12:19:48;;;;;;;1.55;0.50;;;;;;;;;;5020638;28;20029;-74
2022/05/05 12:22:14;;;;;;;1.13;0.50;;;;;;;;;;5019861;28;20525;-74
2022/05/05 12:24:45;;;;;;;3.70;0.70;;;;;;;;;;5017132;28;20062;-74
2022/05/05 12:27:11;;;;;;;3.55;0.50;;;;;;;;;;5017484;28;20061;-74
2022/05/05 12:29:39;;;;;;;5.25;0.80;;;;;;;;;;5018211;28;20376;-74
2022/05/05 12:32:08;;;;;;;1.65;0.50;;;;;;;;;;5016929;28;20109;-74
2022/05/05 12:34:34;;;;;;;4.70;0.93;;;;;;;;;;5024612;28;20387;-74
2022/05/05 12:37:09;;;;;;;2.53;0.70;;;;;;;;;;5017777;28;20025;-74
2022/05/05 12:39:48;;;;;;;3.10;0.77;;;;;;;;;;5013132;28;20044;-74
2022/05/05 12:42:14;;;;;;;3.60;0.77;;;;;;;;;;5023833;28;20041;-74
2022/05/05 12:44:42;;;;;;;2.85;0.90;;;;;;;;;;5017111;28;20076;-74
2022/05/05 12:47:09;;;;;;;2.85;0.77;;;;;;;;;;5016993;28;20479;-74
2022/05/05 12:49:38;;;;;;;2.67;1.35;;;;;;;;;;5019040;28;20030;-74
2022/05/05 12:52:05;;;;;;;3.42;1.13;;;;;;;;;;5019250;28;20048;-74
2022/05/05 13:00:04;;;;;;;3.78;1.00;;;;;;;;;;5017698;28;20105;-74
2022/05/05 13:02:30;;;;;;;4.13;0.60;;;;;;;;;;5014704;28;20038;-74
2022/05/05 13:04:56;;;;;;;3.67;0.50;;;;;;;;;;5021342;28;20085;-74
2022/05/05 13:07:22;;;;;;;4.68;0.98;;;;;;;;;;5023250;28;20037;-74
2022/05/05 13:09:48;;;;;;;3.97;1.08;;;;;;;;;;5022648;28;20613;-74
2022/05/05 13:12:14;;;;;;;4.00;1.02;;;;;;;;;;5017706;28;20079;-74
2022/05/05 13:14:40;;;;;;;2.05;0.80;;;;;;;;;;5016577;28;20113;-74
2022/05/05 13:17:06;;;;;;;3.97;1.15;;;;;;;;;;5020400;28;20183;-74
2022/05/05 13:19:32;;;;;;;4.63;1.50;;;;;;;;;;5028037;28;20048;-74
2022/05/05 13:21:59;;;;;;;4.78;1.45;;;;;;;;;;5021234;28;20076;-74
2022/05/05 13:24:25;;;;;;;2.53;1.02;;;;;;;;;;5018346;28;20040;-74
2022/05/05 13:26:51;;;;;;;3.88;1.40;;;;;;;;;;5015216;28;20068;-74
2022/05/05 13:29:17;;;;;;;4.18;1.17;;;;;;;;;;5015190;28;20079;-74
2022/05/05 13:31:43;;;;;;;7.72;1.38;;;;;;;;;;5015867;28;20030;-74
2022/05/05 13:34:09;;;;;;;4.85;1.38;;;;;;;;;;5019878;28;20079;-74
2022/05/05 13:36:36;;;;;;;4.30;1.73;;;;;;;;;;5019733;28;20042;-74
2022/05/05 13:39:04;;;;;;;4.18;1.33;;;;;;;;;;5016582;28;20115;-74
2022/05/05 13:41:30;;;;;;;7.18;1.75;;;;;;;;;;5018810;28;20074;-74
2022/05/05 13:43:56;;;;;;;9.75;1.70;;;;;;;;;;5016340;28;20030;-74
2022/05/05 13:46:22;;;;;;;3.25;1.02;;;;;;;;;;5014930;28;20048;-74
2022/05/05 13:48:48;;;;;;;4.72;1.30;;;;;;;;;;5021565;28;20026;-74
2022/05/05 13:51:14;;;;;;;3.42;1.10;;;;;;;;;;5021583;28;20383;-74
2022/05/05 13:53:40;;;;;;;4.53;1.38;;;;;;;;;;5020597;28;20828;-74
2022/05/05 13:56:09;;;;;;;5.65;1.42;;;;;;;;;;5022578;28;20099;-74
2022/05/05 13:58:35;;;;;;;4.88;1.80;;;;;;;;;;5018660;28;20030;-74
2022/05/05 14:01:01;;;;;;;4.53;1.75;;;;;;;;;;5016519;28;20048;-74
2022/05/05 14:03:28;;;;;;;5.43;1.70;;;;;;;;;;5016511;28;20033;-74
2022/05/05 14:05:54;;;;;;;5.20;1.85;;;;;;;;;;5017247;28;20361;-74
2022/05/05 14:13:49;;;;;;;3.75;1.25;;;;;;;;;;5015371;28;20081;-74
2022/05/05 14:16:18;;;;;;;3.97;1.02;;;;;;;;;;5024136;28;20057;-74
2022/05/05 14:18:44;;;;;;;4.80;1.35;;;;;;;;;;5013043;28;20026;-74
2022/05/05 14:21:10;;;;;;;4.13;0.98;;;;;;;;;;5017426;28;20080;-74
2022/05/05 14:23:36;;;;;;;6.90;1.35;;;;;;;;;;5014290;28;20587;-73
2022/05/05 14:26:03;;;;;;;3.72;0.80;;;;;;;;;;5012077;28;20065;-74
2022/05/05 14:28:29;;;;;;;3.35;0.80;;;;;;;;;;5015871;28;20049;-74
2022/05/05 14:30:55;;;;;;;4.05;1.05;;;;;;;;;;5017621;28;20037;-74
2022/05/05 14:33:21;;;;;;;4.85;0.80;;;;;;;;;;5018310;28;20033;-74
2022/05/05 14:35:48;;;;;;;3.47;0.80;;;;;;;;;;5015406;28;20049;-74
2022/05/05 14:38:13;;;;;;;3.92;1.85;;;;;;;;;;5017554;28;20036;-73
2022/05/05 14:40:40;;;;;;;6.50;1.10;;;;;;;;;;5019365;28;20045;-74
2022/05/05 14:43:06;;;;;;;4.53;1.30;;;;;;;;;;5017440;28;20038;-74
2022/05/05 14:45:32;;;;;;;5.28;1.40;;;;;;;;;;5014316;28;20124;-74
2022/05/05 14:48:00;;;;;;;5.07;1.50;;;;;;;;;;5020150;28;20069;-73
2022/05/05 14:50:26;;;;;;;4.93;1.50;;;;;;;;;;5012835;28;20033;-74
2022/05/05 14:52:53;;;;;;;4.65;1.67;;;;;;;;;;5015361;28;20025;-74
2022/05/05 14:55:20;;;;;;;7.72;1.40;;;;;;;;;;5023260;28;20120;-74
2022/05/05 14:57:46;;;;;;;6.40;1.73;;;;;;;;;;5020486;28;20748;-74
2022/05/05 15:00:13;;;;;;;4.50;1.42;;;;;;;;;;5017605;28;20705;-75
2022/05/05 15:02:39;;;;;;;4.88;1.67;;;;;;;;;;5016125;28;20487;-74
2022/05/05 15:05:05;;;;;;;4.78;1.80;;;;;;;;;;5016316;28;20033;-74
2022/05/05 15:07:32;;;;;;;4.57;1.67;;;;;;;;;;5018526;28;20056;-74
2022/05/05 15:09:58;;;;;;;3.40;1.95;;;;;;;;;;5018934;28;20030;-74
2022/05/05 15:12:24;;;;;;;3.60;1.98;;;;;;;;;;5016887;28;20021;-74
2022/05/05 15:14:51;;;;;;;6.07;3.17;;;;;;;;;;5019651;28;20037;-74
2022/05/05 15:17:17;;;;;;;9.00;3.53;;;;;;;;;;5017620;28;20641;-74
2022/05/05 15:19:43;;;;;;;5.40;3.25;;;;;;;;;;5013419;28;20034;-74
2022/05/05 15:22:10;;;;;;;6.18;3.60;;;;;;;;;;5014954;28;20117;-73
2022/05/05 15:24:36;;;;;;;6.53;3.72;;;;;;;;;;5018284;28;20064;-74
2022/05/05 15:27:03;;;;;;;6.03;3.50;;;;;;;;;;5020904;28;20064;-74
2022/05/05 15:29:29;;;;;;;6.32;3.30;;;;;;;;;;5016284;28;20422;-74